Norwegian Crown — C6II4 — position and weather

sailwx.info

Track history (hours):
 
Tides and Currents Weather Stations Pressure Air Temp Water Temp Dewpoint Dewpoint Depression Visibility Wind Speed Wind Dir Waves Ship Positions

Norwegian Crown

Operator: Norwegian Cruise Line

Last reported at 2014-Oct-31 21:33 UTC. Time now 2014-Oct-31 22:21 UTC.
Position N 52°04' E 003°36'.

Type: Passenger vessel. MMSI: 308785000.

Date/timePositionNaut miles runAvg speedWind from/ knotsBaromVisibWave heightAir tempDewpointWater temp
2014-Oct-31 21:33N 52°04' E 003°36'8 7.9
2014-Oct-31 20:33N 52°09' E 003°46'8 7.6
2014-Oct-31 19:33N 52°17' E 003°47'7 7.4
2014-Oct-31 18:33N 52°24' E 003°50'8 7.7
2014-Oct-31 17:33N 52°31' E 003°56'9 9.3
2014-Oct-31 16:33N 52°31' E 004°11'1010.2
2014-Oct-31 15:33N 52°29' E 004°27'6 5.7
2014-Oct-31 14:33N 52°28' E 004°37'5 5.3
2014-Oct-31 13:34N 52°26' E 004°44'7 6.5
2014-Oct-31 12:33N 52°23' E 004°54'1 0.7
2014-Oct-31 11:32N 52°23' E 004°55'0 0.0
2014-Oct-31 10:32N 52°23' E 004°55'0 0.0
2014-Oct-31 09:32N 52°23' E 004°55'0 0.0
2014-Oct-31 08:32N 52°23' E 004°55'0 0.0
2014-Oct-31 07:32N 52°23' E 004°55'0 0.0
2014-Oct-31 06:32N 52°23' E 004°55'0 0.0
2014-Oct-31 05:32N 52°23' E 004°55'0 0.0
2014-Oct-31 04:32N 52°23' E 004°55'0 0.0
2014-Oct-31 03:32N 52°23' E 004°55'0 0.0
2014-Oct-31 02:32N 52°23' E 004°55'0 0.0
2014-Oct-31 01:32N 52°23' E 004°55'0 0.0
2014-Oct-31 00:32N 52°23' E 004°55'0 0.0
2014-Oct-30 23:32N 52°23' E 004°55'0 0.0
2014-Oct-30 22:32N 52°23' E 004°55'0 0.0
2014-Oct-30 21:32N 52°23' E 004°55'0 0.0
2014-Oct-30 20:32N 52°23' E 004°55'0 0.0
2014-Oct-30 19:32N 52°23' E 004°55'0 0.0
2014-Oct-30 18:32N 52°23' E 004°55'0 0.0
2014-Oct-30 17:32N 52°23' E 004°55'0 0.0
2014-Oct-30 16:32N 52°23' E 004°55'0 0.0
2014-Oct-30 15:32N 52°23' E 004°55'0 0.0
2014-Oct-30 14:32N 52°23' E 004°55'0 0.0
2014-Oct-30 13:32N 52°23' E 004°55'0 0.0
2014-Oct-30 12:32N 52°23' E 004°55'0 0.0
2014-Oct-30 11:32N 52°23' E 004°55'0 0.0
2014-Oct-30 10:32N 52°23' E 004°55'0 0.0
2014-Oct-30 09:32N 52°23' E 004°55'0 0.0
2014-Oct-30 08:32N 52°23' E 004°55'0 0.0
2014-Oct-30 07:32N 52°23' E 004°55'1 1.1
2014-Oct-30 06:34N 52°23' E 004°54'7 6.8
2014-Oct-30 05:34N 52°26' E 004°43'5 4.6
2014-Oct-30 04:34N 52°28' E 004°37'5 5.2
2014-Oct-30 03:34N 52°28' E 004°28'1111.5
2014-Oct-30 02:34N 52°29' E 004°09'1111.5
2014-Oct-30 01:33N 52°40' E 004°02'1211.7
2014-Oct-30 00:34N 52°52' E 003°59'1312.6
2014-Oct-29 23:33N 53°02' E 004°10'2016.2
2014-Oct-29 22:19N 53°19' E 004°29'1215.8
2014-Oct-29 21:33N 53°30' E 004°35'1815.9
2014-Oct-29 20:27N 53°46' E 004°47'1516.1
2014-Oct-29 19:33N 54°00' E 004°55'1616.5
2014-Oct-29 18:33N 54°15' E 005°04'15016.6
2014-Oct-29 09:33N 56°26' E 007°13'1616.3
2014-Oct-29 08:32N 56°41' E 007°27'12314.9
2014-Oct-29 00:19N 58°16' E 009°49'1013.7
2014-Oct-28 23:33N 58°24' E 010°02'1313.4
2014-Oct-28 22:33N 58°36' E 010°13'1312.7
2014-Oct-28 21:33N 58°48' E 010°24'1313.1
2014-Oct-28 20:33N 58°59' E 010°35'1010.4
2014-Oct-28 19:33N 59°10' E 010°38'1514.8
2014-Oct-28 18:33N 59°24' E 010°34'2713.2
2014-Oct-28 16:29N 59°52' E 010°37'4 4.6
2014-Oct-28 15:32N 59°54' E 010°44'0 0.0
2014-Oct-28 14:32N 59°54' E 010°44'0 0.0
2014-Oct-28 13:32N 59°54' E 010°44'0 0.0
2014-Oct-28 12:32N 59°54' E 010°44'0 0.0
2014-Oct-28 11:23N 59°54' E 010°44'0 0.0
2014-Oct-28 10:26N 59°54' E 010°44'0 0.0
2014-Oct-28 09:26N 59°54' E 010°44'0 0.0
2014-Oct-28 08:26N 59°54' E 010°44'0 0.0
2014-Oct-28 07:29N 59°54' E 010°44'0 0.0
2014-Oct-28 06:11N 59°54' E 010°44'0 0.0
2014-Oct-28 05:26N 59°54' E 010°44'0 0.0
2014-Oct-28 04:32N 59°54' E 010°44'0 0.0
2014-Oct-28 03:32N 59°54' E 010°44'0 0.0
2014-Oct-28 02:32N 59°54' E 010°44'0 0.0
2014-Oct-28 01:32N 59°54' E 010°44'0 0.0
2014-Oct-28 00:32N 59°54' E 010°44'0 0.0
2014-Oct-27 23:32N 59°54' E 010°44'0 0.0
2014-Oct-27 22:20N 59°54' E 010°44'0 0.0
2014-Oct-27 21:26N 59°54' E 010°44'0 0.0
2014-Oct-27 20:26N 59°54' E 010°44'0 0.0
2014-Oct-27 19:29N 59°54' E 010°44'0 0.0
2014-Oct-27 18:15N 59°54' E 010°44'0 0.0
2014-Oct-27 17:33N 59°54' E 010°44'0 0.0
2014-Oct-27 16:33N 59°54' E 010°44'0 0.0
2014-Oct-27 15:33N 59°54' E 010°44'0 0.0
2014-Oct-27 14:30N 59°54' E 010°44'0 0.0
2014-Oct-27 13:33N 59°54' E 010°44'0 0.0
2014-Oct-27 12:33N 59°54' E 010°44'0 0.0
2014-Oct-27 11:33N 59°54' E 010°44'0 0.0
2014-Oct-27 10:24N 59°54' E 010°44'0 0.0
2014-Oct-27 09:27N 59°54' E 010°44'0 0.0
2014-Oct-27 08:24N 59°54' E 010°44'0 0.1
2014-Oct-27 07:33N 59°54' E 010°44'2010.2
2014-Oct-27 05:33N 59°34' E 010°38'1716.8
2014-Oct-27 04:33N 59°17' E 010°37'1414.3
2014-Oct-27 03:33N 59°03' E 010°35'9 8.9
2014-Oct-27 02:33N 58°54' E 010°31'10 9.7
2014-Oct-27 01:33N 58°47' E 010°19'9 9.1
2014-Oct-27 00:34N 58°41' E 010°06'9 9.3
2014-Oct-26 23:33N 58°34' E 009°54'30210.4
2014-Oct-25 18:33N 54°21' E 004°55'1311.7
2014-Oct-25 17:25N 54°09' E 004°43'1011.7
2014-Oct-25 16:33N 53°60' E 004°38'15511.9
2014-Oct-25 03:28N 51°44' E 002°32'1617.9
2014-Oct-25 02:33N 51°32' E 002°15'1818.4
2014-Oct-25 01:33N 51°18' E 001°56'1919.1
2014-Oct-25 00:34N 51°03' E 001°37'2018.7
2014-Oct-24 23:28N 50°46' E 001°21'1617.5
2014-Oct-24 22:33N 50°34' E 001°03'1817.7
2014-Oct-24 21:33N 50°28' E 000°36'3617.6
2014-Oct-24 19:31N 50°25' W 000°19'1717.8
2014-Oct-24 18:34N 50°33' W 000°43'1515.4
2014-Oct-24 17:33N 50°43' W 001°01'1313.1
2014-Oct-24 16:33N 50°50' W 001°19'6 5.0
2014-Oct-24 15:26N 50°54' W 001°25'0 0.0
2014-Oct-24 14:32N 50°54' W 001°25'0 0.0
2014-Oct-24 13:29N 50°54' W 001°25'0 0.0
2014-Oct-24 12:32N 50°54' W 001°25'0 0.0
2014-Oct-24 11:29N 50°54' W 001°25'0 0.0
2014-Oct-24 10:32N 50°54' W 001°25'0 0.0
2014-Oct-24 09:32N 50°54' W 001°25'0 0.0
2014-Oct-24 08:33N 50°54' W 001°25'0 0.0
2014-Oct-24 07:33N 50°54' W 001°25'0 0.0
2014-Oct-24 06:33N 50°54' W 001°25'0 0.0
2014-Oct-24 05:33N 50°54' W 001°25'6 6.0
2014-Oct-24 04:33N 50°50' W 001°19'1211.8
2014-Oct-24 03:33N 50°44' W 001°02'7 6.5
2014-Oct-24 02:33N 50°38' W 000°58'9 9.1
2014-Oct-24 01:33N 50°29' W 001°05'11 8.2
2014-Oct-24 00:15N 50°27' W 001°21'4010.5
2014-Oct-23 20:28N 50°15' W 002°21'1314.1
2014-Oct-23 19:33N 50°11' W 002°40'1413.8
2014-Oct-23 18:33N 50°07' W 003°00'1312.7
2014-Oct-23 17:33N 50°01' W 003°18'  
Track history (hours):
 
Tides and Currents Weather Stations Pressure Air Temp Water Temp Dewpoint Dewpoint Depression Visibility Wind Speed Wind Dir Waves Ship Positions

Norwegian Crown

Operator: Norwegian Cruise Line

Last reported at 2014-Oct-31 21:33 UTC. Time now 2014-Oct-31 22:21 UTC.
Position N 52°04' E 003°36'.

Type: Passenger vessel. MMSI: 308785000.

Date/timePositionNaut miles runAvg speedWind from/ knotsBaromVisibWave heightAir tempDewpointWater temp
2014-Oct-31 21:33N 52°04' E 003°36'8 7.9
2014-Oct-31 20:33N 52°09' E 003°46'8 7.6
2014-Oct-31 19:33N 52°17' E 003°47'7 7.4
2014-Oct-31 18:33N 52°24' E 003°50'8 7.7
2014-Oct-31 17:33N 52°31' E 003°56'9 9.3
2014-Oct-31 16:33N 52°31' E 004°11'1010.2
2014-Oct-31 15:33N 52°29' E 004°27'6 5.7
2014-Oct-31 14:33N 52°28' E 004°37'5 5.3
2014-Oct-31 13:34N 52°26' E 004°44'7 6.5
2014-Oct-31 12:33N 52°23' E 004°54'1 0.7
2014-Oct-31 11:32N 52°23' E 004°55'0 0.0
2014-Oct-31 10:32N 52°23' E 004°55'0 0.0
2014-Oct-31 09:32N 52°23' E 004°55'0 0.0
2014-Oct-31 08:32N 52°23' E 004°55'0 0.0
2014-Oct-31 07:32N 52°23' E 004°55'0 0.0
2014-Oct-31 06:32N 52°23' E 004°55'0 0.0
2014-Oct-31 05:32N 52°23' E 004°55'0 0.0
2014-Oct-31 04:32N 52°23' E 004°55'0 0.0
2014-Oct-31 03:32N 52°23' E 004°55'0 0.0
2014-Oct-31 02:32N 52°23' E 004°55'0 0.0
2014-Oct-31 01:32N 52°23' E 004°55'0 0.0
2014-Oct-31 00:32N 52°23' E 004°55'0 0.0
2014-Oct-30 23:32N 52°23' E 004°55'0 0.0
2014-Oct-30 22:32N 52°23' E 004°55'0 0.0
2014-Oct-30 21:32N 52°23' E 004°55'0 0.0
2014-Oct-30 20:32N 52°23' E 004°55'0 0.0
2014-Oct-30 19:32N 52°23' E 004°55'0 0.0
2014-Oct-30 18:32N 52°23' E 004°55'0 0.0
2014-Oct-30 17:32N 52°23' E 004°55'0 0.0
2014-Oct-30 16:32N 52°23' E 004°55'0 0.0
2014-Oct-30 15:32N 52°23' E 004°55'0 0.0
2014-Oct-30 14:32N 52°23' E 004°55'0 0.0
2014-Oct-30 13:32N 52°23' E 004°55'0 0.0
2014-Oct-30 12:32N 52°23' E 004°55'0 0.0
2014-Oct-30 11:32N 52°23' E 004°55'0 0.0
2014-Oct-30 10:32N 52°23' E 004°55'0 0.0
2014-Oct-30 09:32N 52°23' E 004°55'0 0.0
2014-Oct-30 08:32N 52°23' E 004°55'0 0.0
2014-Oct-30 07:32N 52°23' E 004°55'1 1.1
2014-Oct-30 06:34N 52°23' E 004°54'7 6.8
2014-Oct-30 05:34N 52°26' E 004°43'5 4.6
2014-Oct-30 04:34N 52°28' E 004°37'5 5.2
2014-Oct-30 03:34N 52°28' E 004°28'1111.5
2014-Oct-30 02:34N 52°29' E 004°09'1111.5
2014-Oct-30 01:33N 52°40' E 004°02'1211.7
2014-Oct-30 00:34N 52°52' E 003°59'1312.6
2014-Oct-29 23:33N 53°02' E 004°10'2016.2
2014-Oct-29 22:19N 53°19' E 004°29'1215.8
2014-Oct-29 21:33N 53°30' E 004°35'1815.9
2014-Oct-29 20:27N 53°46' E 004°47'1516.1
2014-Oct-29 19:33N 54°00' E 004°55'1616.5
2014-Oct-29 18:33N 54°15' E 005°04'15016.6
2014-Oct-29 09:33N 56°26' E 007°13'1616.3
2014-Oct-29 08:32N 56°41' E 007°27'12314.9
2014-Oct-29 00:19N 58°16' E 009°49'1013.7
2014-Oct-28 23:33N 58°24' E 010°02'1313.4
2014-Oct-28 22:33N 58°36' E 010°13'1312.7
2014-Oct-28 21:33N 58°48' E 010°24'1313.1
2014-Oct-28 20:33N 58°59' E 010°35'1010.4
2014-Oct-28 19:33N 59°10' E 010°38'1514.8
2014-Oct-28 18:33N 59°24' E 010°34'2713.2
2014-Oct-28 16:29N 59°52' E 010°37'4 4.6
2014-Oct-28 15:32N 59°54' E 010°44'0 0.0
2014-Oct-28 14:32N 59°54' E 010°44'0 0.0
2014-Oct-28 13:32N 59°54' E 010°44'0 0.0
2014-Oct-28 12:32N 59°54' E 010°44'0 0.0
2014-Oct-28 11:23N 59°54' E 010°44'0 0.0
2014-Oct-28 10:26N 59°54' E 010°44'0 0.0
2014-Oct-28 09:26N 59°54' E 010°44'0 0.0
2014-Oct-28 08:26N 59°54' E 010°44'0 0.0
2014-Oct-28 07:29N 59°54' E 010°44'0 0.0
2014-Oct-28 06:11N 59°54' E 010°44'0 0.0
2014-Oct-28 05:26N 59°54' E 010°44'0 0.0
2014-Oct-28 04:32N 59°54' E 010°44'0 0.0
2014-Oct-28 03:32N 59°54' E 010°44'0 0.0
2014-Oct-28 02:32N 59°54' E 010°44'0 0.0
2014-Oct-28 01:32N 59°54' E 010°44'0 0.0
2014-Oct-28 00:32N 59°54' E 010°44'0 0.0
2014-Oct-27 23:32N 59°54' E 010°44'0 0.0
2014-Oct-27 22:20N 59°54' E 010°44'0 0.0
2014-Oct-27 21:26N 59°54' E 010°44'0 0.0
2014-Oct-27 20:26N 59°54' E 010°44'0 0.0
2014-Oct-27 19:29N 59°54' E 010°44'0 0.0
2014-Oct-27 18:15N 59°54' E 010°44'0 0.0
2014-Oct-27 17:33N 59°54' E 010°44'0 0.0
2014-Oct-27 16:33N 59°54' E 010°44'0 0.0
2014-Oct-27 15:33N 59°54' E 010°44'0 0.0
2014-Oct-27 14:30N 59°54' E 010°44'0 0.0
2014-Oct-27 13:33N 59°54' E 010°44'0 0.0
2014-Oct-27 12:33N 59°54' E 010°44'0 0.0
2014-Oct-27 11:33N 59°54' E 010°44'0 0.0
2014-Oct-27 10:24N 59°54' E 010°44'0 0.0
2014-Oct-27 09:27N 59°54' E 010°44'0 0.0
2014-Oct-27 08:24N 59°54' E 010°44'0 0.1
2014-Oct-27 07:33N 59°54' E 010°44'2010.2
2014-Oct-27 05:33N 59°34' E 010°38'1716.8
2014-Oct-27 04:33N 59°17' E 010°37'1414.3
2014-Oct-27 03:33N 59°03' E 010°35'9 8.9
2014-Oct-27 02:33N 58°54' E 010°31'10 9.7
2014-Oct-27 01:33N 58°47' E 010°19'9 9.1
2014-Oct-27 00:34N 58°41' E 010°06'9 9.3
2014-Oct-26 23:33N 58°34' E 009°54'30210.4
2014-Oct-25 18:33N 54°21' E 004°55'1311.7
2014-Oct-25 17:25N 54°09' E 004°43'1011.7
2014-Oct-25 16:33N 53°60' E 004°38'15511.9
2014-Oct-25 03:28N 51°44' E 002°32'1617.9
2014-Oct-25 02:33N 51°32' E 002°15'1818.4
2014-Oct-25 01:33N 51°18' E 001°56'1919.1
2014-Oct-25 00:34N 51°03' E 001°37'2018.7
2014-Oct-24 23:28N 50°46' E 001°21'1617.5
2014-Oct-24 22:33N 50°34' E 001°03'1817.7
2014-Oct-24 21:33N 50°28' E 000°36'3617.6
2014-Oct-24 19:31N 50°25' W 000°19'1717.8
2014-Oct-24 18:34N 50°33' W 000°43'1515.4
2014-Oct-24 17:33N 50°43' W 001°01'1313.1
2014-Oct-24 16:33N 50°50' W 001°19'6 5.0
2014-Oct-24 15:26N 50°54' W 001°25'0 0.0
2014-Oct-24 14:32N 50°54' W 001°25'0 0.0
2014-Oct-24 13:29N 50°54' W 001°25'0 0.0
2014-Oct-24 12:32N 50°54' W 001°25'0 0.0
2014-Oct-24 11:29N 50°54' W 001°25'0 0.0
2014-Oct-24 10:32N 50°54' W 001°25'0 0.0
2014-Oct-24 09:32N 50°54' W 001°25'0 0.0
2014-Oct-24 08:33N 50°54' W 001°25'0 0.0
2014-Oct-24 07:33N 50°54' W 001°25'0 0.0
2014-Oct-24 06:33N 50°54' W 001°25'0 0.0
2014-Oct-24 05:33N 50°54' W 001°25'6 6.0
2014-Oct-24 04:33N 50°50' W 001°19'1211.8
2014-Oct-24 03:33N 50°44' W 001°02'7 6.5
2014-Oct-24 02:33N 50°38' W 000°58'9 9.1
2014-Oct-24 01:33N 50°29' W 001°05'11 8.2
2014-Oct-24 00:15N 50°27' W 001°21'4010.5
2014-Oct-23 20:28N 50°15' W 002°21'1314.1
2014-Oct-23 19:33N 50°11' W 002°40'1413.8
2014-Oct-23 18:33N 50°07' W 003°00'1312.7
2014-Oct-23 17:33N 50°01' W 003°18'  

Dump ship's entire track history